Time;durP1;ratioP1;P1;durP2;ratioP2;P2;SDS_P1;SDS_P2;PMS_P1;PMS_P2;Temp;Humidity;BMP_temperature;BMP_pressure;BME280_temperature;BME280_humidity;BME280_pressure;Samples;Min_cycle;Max_cycle;Signal;HPM_P1;HPM_P2
2021/05/31 00:01:35;;;;;;;0.40;0.30;;;19.10;77.50;;;;;;5118533;27;20056;-76
2021/05/31 00:04:06;;;;;;;0.52;0.40;;;19.20;77.30;;;;;;5102168;27;20051;-76
2021/05/31 00:06:42;;;;;;;1.02;0.50;;;19.00;77.60;;;;;;5096772;28;20409;-76
2021/05/31 00:09:12;;;;;;;1.83;0.55;;;19.00;77.60;;;;;;5102885;27;20068;-76
2021/05/31 00:11:43;;;;;;;1.20;0.77;;;19.00;77.70;;;;;;5102796;27;20047;-76
2021/05/31 00:14:14;;;;;;;1.10;0.60;;;18.90;77.80;;;;;;5106302;27;20047;-76
2021/05/31 00:16:43;;;;;;;1.10;0.50;;;18.90;77.90;;;;;;5101187;27;20104;-76
2021/05/31 00:19:14;;;;;;;1.40;0.40;;;18.80;77.70;;;;;;5103220;27;20058;-76
2021/05/31 00:21:45;;;;;;;0.88;0.40;;;18.90;77.90;;;;;;5101030;27;20586;-76
2021/05/31 00:24:17;;;;;;;1.98;0.40;;;18.90;77.70;;;;;;5097850;28;20054;-76
2021/05/31 00:26:49;;;;;;;0.75;0.40;;;18.90;77.70;;;;;;5098679;28;20047;-76
2021/05/31 00:29:23;;;;;;;1.15;0.57;;;18.90;77.70;;;;;;5102679;27;20047;-76
2021/05/31 00:31:53;;;;;;;0.98;0.45;;;18.90;77.80;;;;;;5097497;27;20501;-76
2021/05/31 00:34:25;;;;;;;1.13;0.57;;;18.80;77.70;;;;;;5100479;27;20495;-76
2021/05/31 00:36:55;;;;;;;0.73;0.57;;;18.70;77.90;;;;;;5102250;27;20032;-75
2021/05/31 00:39:25;;;;;;;0.60;0.40;;;18.60;78.30;;;;;;5099929;27;20119;-76
2021/05/31 00:41:56;;;;;;;1.50;0.40;;;18.50;78.40;;;;;;5095773;27;20093;-76
2021/05/31 00:44:26;;;;;;;1.00;0.43;;;18.50;78.00;;;;;;5098793;28;20040;-76
2021/05/31 00:46:55;;;;;;;1.83;0.50;;;18.40;78.50;;;;;;5098721;28;20043;-76
2021/05/31 00:49:35;;;;;;;1.33;0.60;;;18.50;78.50;;;;;;5085736;27;20036;-76
2021/05/31 00:52:06;;;;;;;0.52;0.40;;;18.30;78.00;;;;;;5114656;27;20043;-76
2021/05/31 00:54:38;;;;;;;0.45;0.30;;;18.10;78.70;;;;;;5098292;27;20072;-76
2021/05/31 00:57:09;;;;;;;0.98;0.45;;;17.90;79.20;;;;;;5098070;28;20111;-76
2021/05/31 00:59:39;;;;;;;0.50;0.30;;;17.90;79.10;;;;;;5081764;28;20051;-77
2021/05/31 01:02:09;;;;;;;1.70;0.50;;;18.00;79.50;;;;;;5103077;27;20036;-76
2021/05/31 01:04:39;;;;;;;0.85;0.30;;;18.20;79.20;;;;;;5101691;27;20089;-76
2021/05/31 01:07:17;;;;;;;0.38;0.38;;;18.30;79.20;;;;;;5098011;28;20586;-77
2021/05/31 01:10:00;;;;;;;1.10;0.32;;;18.30;79.10;;;;;;5098792;27;20475;-76
2021/05/31 01:12:37;;;;;;;1.30;0.50;;;18.40;79.20;;;;;;5095708;27;20040;-77
2021/05/31 01:15:14;;;;;;;0.63;0.35;;;18.40;79.10;;;;;;5100798;27;20036;-77
2021/05/31 01:17:52;;;;;;;0.73;0.40;;;18.50;78.90;;;;;;5096926;27;20432;-76
2021/05/31 01:20:56;;;;;;;1.42;0.30;;;18.50;78.70;;;;;;5098553;27;20578;-77
2021/05/31 01:23:31;;;;;;;1.38;0.40;;;18.50;78.50;;;;;;5094959;27;20524;-77
2021/05/31 01:26:09;;;;;;;1.58;0.50;;;18.50;78.20;;;;;;5097228;27;20051;-77
2021/05/31 01:29:06;;;;;;;1.45;0.57;;;18.60;77.60;;;;;;5085822;28;20388;-77
2021/05/31 01:31:44;;;;;;;0.75;0.40;;;18.50;77.90;;;;;;5095857;27;20063;-77
2021/05/31 01:34:19;;;;;;;1.25;0.30;;;18.50;78.00;;;;;;5101335;27;20370;-77
2021/05/31 01:36:52;;;;;;;1.10;0.47;;;18.50;78.40;;;;;;5100141;28;20051;-77
2021/05/31 01:39:25;;;;;;;0.70;0.30;;;18.50;78.70;;;;;;5099412;27;20437;-77
2021/05/31 01:42:48;;;;;;;0.57;0.40;;;18.40;78.80;;;;;;5104229;27;20036;-76
2021/05/31 01:45:20;;;;;;;0.40;0.40;;;18.30;78.70;;;;;;5097696;27;20067;-76
2021/05/31 01:47:50;;;;;;;0.45;0.35;;;18.30;79.10;;;;;;5096428;28;20064;-76
2021/05/31 01:50:20;;;;;;;2.05;0.77;;;18.40;78.90;;;;;;5079414;28;20462;-76
2021/05/31 01:52:51;;;;;;;0.93;0.50;;;18.40;78.60;;;;;;5095185;28;20047;-76
2021/05/31 01:55:22;;;;;;;0.32;0.30;;;18.20;78.40;;;;;;5093402;27;20127;-76
2021/05/31 01:57:53;;;;;;;0.50;0.32;;;17.90;79.10;;;;;;5096271;28;20047;-76
2021/05/31 02:00:25;;;;;;;1.05;0.45;;;17.90;79.40;;;;;;5083572;28;20134;-76
2021/05/31 02:02:55;;;;;;;0.75;0.40;;;17.90;79.20;;;;;;5095062;28;20062;-76
2021/05/31 02:05:27;;;;;;;1.15;0.40;;;18.00;79.30;;;;;;5094749;28;20035;-76
2021/05/31 02:07:56;;;;;;;0.40;0.40;;;18.00;79.20;;;;;;5085429;27;20128;-76
2021/05/31 02:10:26;;;;;;;3.65;1.02;;;18.00;79.10;;;;;;5097006;27;20043;-76
2021/05/31 02:12:59;;;;;;;1.85;0.50;;;18.00;79.20;;;;;;5098247;28;20513;-76
2021/05/31 02:15:36;;;;;;;0.50;0.30;;;17.90;79.30;;;;;;5099114;28;20055;-76
2021/05/31 02:18:14;;;;;;;1.38;0.40;;;17.90;78.90;;;;;;5096761;28;20120;-76
2021/05/31 02:20:46;;;;;;;0.75;0.50;;;17.90;78.70;;;;;;5096028;27;20039;-77
2021/05/31 02:23:16;;;;;;;1.10;0.47;;;17.90;79.10;;;;;;5097533;27;20046;-77
2021/05/31 02:25:49;;;;;;;0.40;0.30;;;17.90;78.80;;;;;;5099489;27;20045;-76
2021/05/31 02:28:20;;;;;;;3.80;0.57;;;17.80;79.00;;;;;;5095109;28;20035;-76
2021/05/31 02:30:53;;;;;;;2.63;0.50;;;17.70;79.20;;;;;;5096035;28;20035;-77
2021/05/31 02:33:24;;;;;;;0.60;0.30;;;17.60;80.30;;;;;;5095487;27;20047;-77
2021/05/31 02:35:53;;;;;;;0.50;0.40;;;17.60;80.10;;;;;;5096598;28;20040;-76
2021/05/31 02:38:26;;;;;;;0.57;0.47;;;17.80;80.20;;;;;;5086217;28;20044;-76
2021/05/31 02:40:55;;;;;;;0.90;0.50;;;17.70;80.60;;;;;;5098083;27;20076;-76
2021/05/31 02:43:35;;;;;;;1.33;0.45;;;17.50;81.40;;;;;;5096740;27;20035;-76
2021/05/31 02:46:18;;;;;;;0.80;0.47;;;17.50;81.80;;;;;;5095180;28;20601;-76
2021/05/31 02:49:07;;;;;;;0.93;0.50;;;17.60;81.60;;;;;;5096658;28;20043;-76
2021/05/31 02:51:44;;;;;;;1.88;0.60;;;17.40;82.70;;;;;;5096733;28;20063;-76
2021/05/31 02:54:23;;;;;;;2.22;0.68;;;17.30;82.90;;;;;;5102824;27;20536;-77
2021/05/31 02:57:11;;;;;;;0.45;0.40;;;17.20;83.00;;;;;;5098146;28;20040;-76
2021/05/31 02:59:55;;;;;;;1.10;0.60;;;17.40;83.20;;;;;;5094059;27;20136;-75
2021/05/31 03:02:35;;;;;;;0.55;0.50;;;17.40;82.70;;;;;;5061105;28;20044;-75
2021/05/31 03:05:07;;;;;;;1.15;0.50;;;17.20;83.40;;;;;;5093752;28;20063;-76
2021/05/31 03:07:37;;;;;;;1.58;0.63;;;17.20;83.40;;;;;;5096930;28;20124;-76
2021/05/31 03:10:08;;;;;;;2.20;0.50;;;17.10;83.80;;;;;;5094767;28;20032;-76
2021/05/31 03:12:39;;;;;;;1.08;0.63;;;17.20;83.70;;;;;;5083643;28;20566;-76
2021/05/31 03:15:15;;;;;;;1.58;0.45;;;17.30;83.90;;;;;;5095385;28;20048;-76
2021/05/31 03:17:49;;;;;;;0.88;0.40;;;17.40;84.20;;;;;;5096659;28;20642;-76
2021/05/31 03:20:21;;;;;;;0.90;0.43;;;17.50;83.80;;;;;;5101771;28;20141;-76
2021/05/31 03:22:51;;;;;;;1.88;0.50;;;17.40;83.30;;;;;;5094476;28;20134;-76
2021/05/31 03:25:24;;;;;;;0.40;0.40;;;17.50;82.90;;;;;;5097849;28;20036;-76
2021/05/31 03:27:54;;;;;;;0.93;0.40;;;17.40;82.70;;;;;;5098775;28;20036;-76
2021/05/31 03:30:23;;;;;;;2.08;0.50;;;17.30;82.90;;;;;;5095319;28;20144;-76
2021/05/31 03:32:56;;;;;;;0.75;0.50;;;17.20;82.80;;;;;;5098824;28;20499;-76
2021/05/31 03:35:27;;;;;;;1.08;0.55;;;17.30;82.60;;;;;;5084604;28;20108;-76
2021/05/31 03:37:56;;;;;;;0.95;0.50;;;17.30;82.50;;;;;;5103876;27;20051;-76
2021/05/31 03:40:27;;;;;;;0.40;0.30;;;17.30;82.70;;;;;;5103774;27;20052;-76
2021/05/31 03:42:57;;;;;;;0.63;0.40;;;17.20;82.80;;;;;;5102391;27;20065;-76
2021/05/31 03:45:27;;;;;;;1.73;0.47;;;17.30;82.80;;;;;;5100164;28;20489;-76
2021/05/31 03:47:58;;;;;;;2.92;0.68;;;17.30;82.70;;;;;;5101014;28;20036;-76
2021/05/31 03:50:30;;;;;;;4.15;1.13;;;17.10;83.00;;;;;;5098489;27;20691;-76
2021/05/31 03:53:00;;;;;;;0.93;0.47;;;17.20;83.20;;;;;;5087313;28;20070;-76
2021/05/31 03:55:30;;;;;;;0.57;0.45;;;17.10;83.10;;;;;;5100850;27;20125;-76
2021/05/31 03:58:00;;;;;;;3.20;0.50;;;17.00;83.90;;;;;;5103340;27;20083;-76
2021/05/31 04:00:31;;;;;;;0.90;0.60;;;17.10;84.20;;;;;;5102866;27;20071;-76
2021/05/31 04:03:03;;;;;;;0.70;0.50;;;17.10;84.50;;;;;;5103757;27;20043;-76
2021/05/31 04:05:34;;;;;;;3.10;0.60;;;17.10;84.80;;;;;;5100735;27;20694;-76
2021/05/31 04:13:41;;;;;;;1.90;0.50;;;17.10;85.50;;;;;;5097638;27;20051;-76
2021/05/31 04:16:11;;;;;;;0.77;0.50;;;17.10;85.40;;;;;;5103753;27;20036;-76
2021/05/31 04:18:43;;;;;;;1.75;0.60;;;17.10;85.30;;;;;;5099698;28;20065;-76
2021/05/31 04:21:17;;;;;;;1.45;0.57;;;17.00;85.10;;;;;;5098903;27;20134;-76
2021/05/31 04:23:46;;;;;;;0.70;0.50;;;16.70;85.20;;;;;;5097265;27;20525;-76
2021/05/31 04:26:16;;;;;;;2.22;0.95;;;16.70;86.20;;;;;;5096315;27;20586;-76
2021/05/31 04:28:44;;;;;;;1.95;0.55;;;16.70;85.80;;;;;;5102964;28;20085;-76
2021/05/31 04:31:13;;;;;;;4.00;0.70;;;16.60;86.20;;;;;;5099679;27;20123;-76
2021/05/31 04:33:43;;;;;;;4.60;0.70;;;16.80;85.90;;;;;;5098886;27;20040;-76
2021/05/31 04:36:12;;;;;;;2.30;0.40;;;16.80;85.50;;;;;;5100933;27;20132;-76
2021/05/31 04:38:40;;;;;;;1.45;0.63;;;16.70;85.80;;;;;;5098027;27;20619;-75
2021/05/31 04:41:08;;;;;;;1.42;0.47;;;16.80;85.90;;;;;;5109217;27;20047;-77
2021/05/31 04:43:37;;;;;;;0.52;0.40;;;16.90;86.00;;;;;;5085769;28;20104;-76
2021/05/31 04:46:05;;;;;;;2.08;0.55;;;17.00;85.90;;;;;;5103344;27;20044;-76
2021/05/31 04:48:34;;;;;;;3.63;0.77;;;16.90;86.20;;;;;;5099609;28;20416;-76
2021/05/31 04:51:04;;;;;;;3.33;0.95;;;16.80;86.90;;;;;;5081921;28;20044;-76
2021/05/31 04:53:33;;;;;;;1.73;0.90;;;16.50;87.90;;;;;;5118278;27;20054;-76
2021/05/31 04:56:03;;;;;;;1.25;0.70;;;16.20;89.40;;;;;;5102142;27;20039;-76
2021/05/31 04:58:31;;;;;;;1.60;1.05;;;16.20;90.30;;;;;;5099508;27;20062;-76
2021/05/31 05:01:00;;;;;;;2.55;1.23;;;16.40;90.30;;;;;;5100439;27;20040;-76
2021/05/31 05:03:28;;;;;;;1.83;1.00;;;16.40;90.10;;;;;;5100820;27;20050;-76
2021/05/31 05:05:56;;;;;;;5.80;4.97;;;16.50;90.40;;;;;;5101635;27;20252;-76
2021/05/31 05:08:26;;;;;;;7.05;6.45;;;16.50;90.10;;;;;;5085359;28;20406;-76
2021/05/31 05:10:54;;;;;;;6.65;5.82;;;16.40;90.50;;;;;;5098451;27;20038;-76
2021/05/31 05:13:23;;;;;;;7.88;6.60;;;16.60;90.50;;;;;;5103086;27;20059;-76
2021/05/31 05:15:51;;;;;;;8.93;8.02;;;16.80;90.70;;;;;;5096006;27;20047;-76
2021/05/31 05:18:20;;;;;;;10.25;9.27;;;16.80;89.30;;;;;;5085860;27;20126;-76
2021/05/31 05:20:48;;;;;;;11.52;10.43;;;16.90;88.60;;;;;;5104832;27;20046;-77
2021/05/31 05:23:16;;;;;;;12.68;7.38;;;17.00;89.10;;;;;;5104362;27;20115;-76
2021/05/31 05:25:54;;;;;;;;;;;17.10;88.10;;;;;;5095178;28;20043;-77
2021/05/31 05:28:22;;;;;;;8.32;5.00;;;17.10;87.50;;;;;;5085738;28;19924;-76
2021/05/31 05:30:51;;;;;;;8.07;4.88;;;17.10;87.50;;;;;;5100157;28;20051;-76
2021/05/31 05:33:20;;;;;;;3.90;2.10;;;17.10;87.00;;;;;;5097985;28;20043;-76
2021/05/31 05:36:04;;;;;;;3.92;1.90;;;17.00;87.10;;;;;;5098807;27;20458;-76
2021/05/31 05:38:45;;;;;;;3.05;1.23;;;16.80;87.50;;;;;;5101888;27;20050;-76
2021/05/31 05:41:25;;;;;;;3.92;1.20;;;16.90;87.20;;;;;;5112012;27;20048;-76
2021/05/31 05:44:18;;;;;;;5.05;1.30;;;16.90;87.60;;;;;;5099334;27;20416;-77
2021/05/31 05:47:32;;;;;;;2.92;1.00;;;17.20;87.40;;;;;;5078714;28;20051;-77
2021/05/31 05:49:41;;;;;;;2.65;1.17;;;17.40;86.40;;;;;;5099077;27;20027;-76
2021/05/31 05:52:10;;;;;;;1.80;0.75;;;17.40;85.60;;;;;;5101510;28;20058;-76
2021/05/31 05:54:38;;;;;;;1.92;0.80;;;17.60;84.80;;;;;;5097501;27;20184;-77
2021/05/31 05:57:08;;;;;;;2.38;0.70;;;17.70;84.80;;;;;;5081263;27;20095;-76
2021/05/31 05:59:37;;;;;;;1.40;0.68;;;17.80;84.40;;;;;;5096840;28;20082;-77
2021/05/31 06:02:06;;;;;;;2.53;0.70;;;17.80;84.30;;;;;;5098344;27;20386;-77
2021/05/31 06:04:36;;;;;;;3.45;0.80;;;17.80;84.30;;;;;;5096975;28;20683;-77
2021/05/31 06:07:04;;;;;;;1.85;0.70;;;17.90;83.70;;;;;;5097784;27;20125;-77
2021/05/31 06:09:33;;;;;;;3.30;0.60;;;17.90;84.10;;;;;;5101052;27;20040;-77
2021/05/31 06:12:01;;;;;;;1.88;0.80;;;18.00;83.20;;;;;;5101029;27;20130;-77
2021/05/31 06:14:31;;;;;;;1.25;0.95;;;17.80;83.80;;;;;;5099492;27;20047;-77
2021/05/31 06:16:59;;;;;;;3.55;0.82;;;17.80;83.60;;;;;;5100320;27;20042;-77
2021/05/31 06:19:29;;;;;;;3.45;1.00;;;17.80;84.00;;;;;;5097311;27;20050;-76
2021/05/31 06:21:57;;;;;;;1.77;0.98;;;17.90;84.40;;;;;;5098840;28;20043;-77
2021/05/31 06:24:26;;;;;;;3.65;1.33;;;17.90;84.30;;;;;;5098392;27;20039;-77
2021/05/31 06:26:54;;;;;;;2.95;0.80;;;17.90;84.40;;;;;;5094274;27;20043;-77
2021/05/31 06:29:22;;;;;;;2.42;0.85;;;17.90;84.70;;;;;;5121016;27;20051;-78
2021/05/31 06:31:52;;;;;;;3.03;1.10;;;17.90;84.90;;;;;;5097416;28;20043;-77
2021/05/31 06:34:20;;;;;;;2.28;1.20;;;17.90;85.20;;;;;;5099418;27;20448;-77
2021/05/31 06:36:54;;;;;;;3.22;1.10;;;17.90;86.10;;;;;;5085696;28;20096;-77
2021/05/31 06:39:22;;;;;;;4.05;1.13;;;18.00;86.80;;;;;;5105208;27;21133;-77
2021/05/31 06:41:52;;;;;;;2.47;0.88;;;18.00;86.60;;;;;;5100813;27;20047;-77
2021/05/31 06:44:20;;;;;;;3.40;1.17;;;18.20;86.70;;;;;;5095746;27;20036;-77
2021/05/31 06:46:49;;;;;;;1.52;1.05;;;18.30;86.30;;;;;;5100345;27;20061;-77
2021/05/31 06:49:18;;;;;;;6.70;1.67;;;18.20;86.80;;;;;;5099512;27;20697;-77
2021/05/31 06:51:47;;;;;;;3.25;1.50;;;18.30;87.00;;;;;;5092623;27;20174;-77
2021/05/31 06:54:15;;;;;;;3.67;1.83;;;18.40;86.60;;;;;;5101733;28;20088;-77
2021/05/31 06:56:43;;;;;;;3.22;2.28;;;18.50;86.70;;;;;;5099561;27;20032;-77
2021/05/31 06:59:13;;;;;;;5.70;4.22;;;18.50;86.70;;;;;;5098817;28;20152;-77
2021/05/31 07:01:43;;;;;;;7.13;4.15;;;18.60;86.70;;;;;;5097668;27;20685;-77
2021/05/31 07:04:13;;;;;;;7.30;4.25;;;18.70;86.30;;;;;;5100067;28;20336;-77
2021/05/31 07:06:43;;;;;;;7.45;4.75;;;18.70;86.10;;;;;;5084150;28;20534;-77
2021/05/31 07:09:12;;;;;;;7.28;5.07;;;18.80;86.50;;;;;;5099156;28;20047;-77
2021/05/31 07:11:44;;;;;;;14.23;5.65;;;18.90;85.80;;;;;;5097429;28;20088;-76
2021/05/31 07:14:18;;;;;;;7.55;4.68;;;18.90;86.10;;;;;;5100197;28;20053;-76
2021/05/31 07:16:47;;;;;;;7.05;4.70;;;18.90;85.20;;;;;;5082130;28;20313;-76
2021/05/31 07:19:17;;;;;;;10.43;4.35;;;18.80;85.50;;;;;;5083873;28;20047;-75
2021/05/31 07:21:47;;;;;;;8.43;4.15;;;18.80;85.30;;;;;;5094527;28;20050;-75
2021/05/31 07:24:15;;;;;;;6.53;4.03;;;18.90;86.50;;;;;;5097853;28;20337;-75
2021/05/31 07:26:44;;;;;;;7.88;4.07;;;19.00;86.30;;;;;;5097091;28;20071;-75
2021/05/31 07:29:12;;;;;;;5.57;3.42;;;19.10;86.30;;;;;;5095508;28;20048;-74
2021/05/31 07:31:40;;;;;;;3.67;2.40;;;19.10;86.50;;;;;;5099903;28;20079;-74
2021/05/31 07:34:08;;;;;;;4.00;2.70;;;19.20;85.50;;;;;;5098858;28;20143;-75
2021/05/31 07:36:37;;;;;;;5.85;2.70;;;19.20;84.90;;;;;;5097585;28;20032;-75
2021/05/31 07:39:08;;;;;;;4.35;2.00;;;19.30;85.00;;;;;;5093671;28;20088;-74
2021/05/31 07:41:36;;;;;;;7.07;1.90;;;19.40;84.20;;;;;;5096706;28;20485;-74
2021/05/31 07:44:05;;;;;;;2.95;1.75;;;19.50;83.20;;;;;;5096039;28;20137;-75
2021/05/31 07:46:33;;;;;;;3.40;1.35;;;19.50;83.10;;;;;;5098565;28;20077;-74
2021/05/31 07:49:02;;;;;;;4.13;2.00;;;19.60;83.50;;;;;;5099070;28;20044;-75
2021/05/31 07:51:31;;;;;;;2.33;1.75;;;19.70;83.00;;;;;;5098558;28;20400;-76
2021/05/31 07:54:00;;;;;;;4.05;1.95;;;19.80;82.70;;;;;;5095792;28;20566;-75
2021/05/31 07:56:30;;;;;;;3.17;1.40;;;19.80;82.50;;;;;;5098338;28;20514;-76
2021/05/31 07:58:58;;;;;;;3.75;1.55;;;19.90;81.70;;;;;;5093445;28;20093;-75
2021/05/31 08:01:27;;;;;;;3.08;1.38;;;19.90;82.10;;;;;;5100660;28;20043;-75
2021/05/31 08:03:59;;;;;;;4.32;1.60;;;20.00;81.90;;;;;;5082253;28;20096;-75
2021/05/31 08:06:28;;;;;;;2.13;1.10;;;20.00;82.10;;;;;;5095212;28;20047;-74
2021/05/31 08:08:56;;;;;;;2.45;0.77;;;20.10;81.60;;;;;;5092578;28;20047;-75
2021/05/31 08:11:24;;;;;;;3.63;1.05;;;20.10;82.10;;;;;;5092045;28;20552;-74
2021/05/31 08:13:54;;;;;;;3.08;0.80;;;20.10;81.80;;;;;;5094605;28;20516;-73
2021/05/31 08:16:23;;;;;;;2.83;0.80;;;20.20;81.60;;;;;;5093621;28;20039;-74
2021/05/31 08:18:51;;;;;;;1.40;0.73;;;20.20;81.00;;;;;;5093469;28;20048;-75
2021/05/31 08:21:19;;;;;;;3.17;1.00;;;20.30;78.90;;;;;;5114313;27;20051;-76
2021/05/31 08:23:48;;;;;;;2.20;0.80;;;20.40;78.30;;;;;;5096492;28;20035;-76
2021/05/31 08:26:19;;;;;;;4.25;1.30;;;20.40;78.50;;;;;;5099899;27;20063;-77
2021/05/31 08:28:48;;;;;;;2.47;0.85;;;20.50;78.90;;;;;;5098249;28;20524;-76
2021/05/31 08:31:17;;;;;;;1.92;1.13;;;20.60;77.80;;;;;;5095685;27;20040;-76
2021/05/31 08:33:48;;;;;;;4.65;1.00;;;20.70;77.40;;;;;;5100093;27;20036;-76
2021/05/31 08:36:18;;;;;;;1.85;0.82;;;20.80;76.30;;;;;;5083395;28;20144;-76
2021/05/31 08:38:46;;;;;;;3.28;1.02;;;20.90;77.00;;;;;;5104198;27;20047;-76
2021/05/31 08:41:14;;;;;;;5.30;1.17;;;20.80;77.20;;;;;;5101960;27;20032;-76
2021/05/31 08:43:43;;;;;;;2.92;1.00;;;20.80;76.90;;;;;;5098104;27;20074;-76
2021/05/31 08:46:11;;;;;;;1.10;0.80;;;20.90;76.90;;;;;;5097044;28;20040;-76
2021/05/31 08:48:41;;;;;;;1.83;0.98;;;20.90;77.60;;;;;;5095995;28;20507;-76
2021/05/31 08:51:09;;;;;;;2.88;0.88;;;21.00;76.50;;;;;;5098801;27;20043;-76
2021/05/31 08:53:41;;;;;;;2.70;1.10;;;21.20;76.60;;;;;;5098676;28;20097;-76
2021/05/31 08:56:09;;;;;;;1.63;1.00;;;21.40;74.80;;;;;;5098791;27;20052;-76
2021/05/31 08:58:38;;;;;;;7.50;1.00;;;21.40;74.00;;;;;;5101382;27;20051;-76
2021/05/31 09:01:06;;;;;;;1.63;0.88;;;21.40;73.50;;;;;;5103572;27;20043;-75
2021/05/31 09:03:35;;;;;;;1.73;0.85;;;21.50;72.40;;;;;;5100064;28;20051;-75
2021/05/31 09:06:09;;;;;;;4.03;1.23;;;21.50;73.90;;;;;;5096303;27;20036;-75
2021/05/31 09:08:43;;;;;;;1.88;0.95;;;21.60;73.40;;;;;;5099121;27;20040;-75
2021/05/31 09:11:18;;;;;;;3.42;1.00;;;21.50;71.40;;;;;;5099357;28;20680;-74
2021/05/31 09:13:46;;;;;;;1.52;0.82;;;21.60;72.50;;;;;;5099199;28;20044;-74
2021/05/31 09:16:16;;;;;;;1.25;0.77;;;21.60;72.80;;;;;;5096566;27;20036;-74
2021/05/31 09:18:48;;;;;;;1.67;0.90;;;21.70;72.30;;;;;;5085589;28;20061;-77
2021/05/31 09:21:22;;;;;;;3.38;0.93;;;21.70;72.30;;;;;;5096061;27;20032;-76
2021/05/31 09:23:53;;;;;;;1.38;1.00;;;21.80;72.80;;;;;;5095725;27;20054;-76
2021/05/31 09:26:22;;;;;;;1.20;0.88;;;21.80;71.40;;;;;;5096651;27;20830;-76
2021/05/31 09:28:57;;;;;;;2.75;1.27;;;21.70;71.60;;;;;;5097545;27;20044;-76
2021/05/31 09:31:26;;;;;;;3.05;1.27;;;21.70;71.90;;;;;;5081828;28;20222;-77
2021/05/31 09:34:00;;;;;;;1.30;0.80;;;21.90;71.90;;;;;;5096359;27;20047;-76
2021/05/31 09:36:46;;;;;;;1.35;1.00;;;22.00;72.30;;;;;;5088220;27;20140;-76
2021/05/31 09:39:14;;;;;;;2.13;0.88;;;22.00;71.90;;;;;;5100449;27;20063;-77
2021/05/31 09:41:43;;;;;;;1.10;1.00;;;22.00;71.70;;;;;;5099347;27;20040;-76
2021/05/31 09:44:11;;;;;;;1.00;0.90;;;22.10;72.10;;;;;;5081084;28;20174;-76
2021/05/31 09:46:42;;;;;;;1.48;0.80;;;22.20;70.70;;;;;;5102161;27;20183;-77
2021/05/31 09:49:16;;;;;;;2.13;0.98;;;22.10;72.20;;;;;;5094901;28;20421;-77
2021/05/31 09:51:53;;;;;;;4.13;1.27;;;22.20;72.30;;;;;;5094562;28;20082;-77
2021/05/31 09:54:31;;;;;;;1.45;1.15;;;22.40;72.10;;;;;;5098914;28;20079;-77
2021/05/31 09:57:14;;;;;;;2.25;1.02;;;22.40;70.60;;;;;;5096974;28;20523;-76
2021/05/31 09:59:44;;;;;;;2.85;1.10;;;22.40;71.70;;;;;;5092874;28;20052;-76
2021/05/31 10:02:16;;;;;;;1.63;1.00;;;22.50;70.70;;;;;;5097806;27;20044;-77
2021/05/31 10:05:04;;;;;;;2.55;0.82;;;22.70;68.60;;;;;;5099319;27;20043;-77
2021/05/31 10:07:44;;;;;;;2.17;1.00;;;23.00;68.80;;;;;;5100147;27;20063;-77
2021/05/31 10:10:13;;;;;;;1.88;0.75;;;23.00;67.40;;;;;;5096213;28;21203;-77
2021/05/31 10:12:58;;;;;;;1.98;1.00;;;23.10;68.00;;;;;;5099960;28;20046;-77
2021/05/31 10:15:28;;;;;;;1.23;0.73;;;23.20;70.10;;;;;;5100842;28;20046;-77
2021/05/31 10:17:58;;;;;;;1.40;1.00;;;23.30;70.50;;;;;;5112613;27;20062;-77
2021/05/31 10:20:29;;;;;;;3.47;1.33;;;23.30;70.10;;;;;;5101071;27;20531;-76
2021/05/31 10:23:05;;;;;;;4.45;1.10;;;23.40;68.90;;;;;;5094848;28;20050;-77
2021/05/31 10:25:35;;;;;;;1.65;1.10;;;23.30;67.50;;;;;;5098888;28;20046;-77
2021/05/31 10:28:07;;;;;;;2.13;1.00;;;23.40;69.20;;;;;;5096657;27;20044;-77
2021/05/31 10:30:40;;;;;;;2.90;1.45;;;23.50;69.50;;;;;;5083881;28;20051;-76
2021/05/31 10:33:12;;;;;;;2.53;0.80;;;23.80;69.30;;;;;;5096355;28;20054;-77
2021/05/31 10:35:41;;;;;;;1.13;1.00;;;24.00;66.70;;;;;;5104978;27;20500;-76
2021/05/31 10:38:13;;;;;;;1.95;1.20;;;24.00;65.20;;;;;;5099854;27;20114;-77
2021/05/31 10:40:45;;;;;;;2.10;1.10;;;24.00;65.00;;;;;;5098186;28;20116;-77
2021/05/31 10:43:15;;;;;;;2.08;1.02;;;24.10;66.30;;;;;;5118517;27;20170;-77
2021/05/31 10:45:44;;;;;;;0.95;0.70;;;24.40;65.60;;;;;;5095639;28;20501;-77
2021/05/31 10:48:15;;;;;;;1.00;0.85;;;24.50;64.70;;;;;;5095194;27;20143;-77
2021/05/31 10:50:44;;;;;;;1.58;1.15;;;24.50;64.60;;;;;;5113767;27;20058;-77
2021/05/31 10:53:26;;;;;;;1.90;1.10;;;24.70;66.90;;;;;;5096978;28;20050;-77
2021/05/31 10:55:56;;;;;;;1.88;1.23;;;24.60;66.60;;;;;;5096886;28;20516;-77
2021/05/31 10:58:26;;;;;;;1.92;1.00;;;24.70;66.30;;;;;;5102406;28;20051;-77
2021/05/31 11:00:56;;;;;;;1.48;0.90;;;24.70;66.50;;;;;;5095005;28;20056;-77
2021/05/31 11:03:25;;;;;;;1.25;0.85;;;24.90;63.30;;;;;;5094151;28;20071;-77
2021/05/31 11:05:54;;;;;;;1.00;0.70;;;24.60;62.30;;;;;;5096286;27;20409;-77
2021/05/31 11:08:29;;;;;;;3.20;1.05;;;24.30;64.20;;;;;;5096688;28;20031;-77
2021/05/31 11:10:59;;;;;;;1.02;0.65;;;24.60;63.50;;;;;;5097407;28;20043;-77
2021/05/31 11:13:29;;;;;;;2.25;0.80;;;24.70;64.50;;;;;;5085214;28;20393;-77
2021/05/31 11:16:04;;;;;;;1.17;0.60;;;25.00;63.40;;;;;;5106258;28;20043;-76
2021/05/31 11:18:40;;;;;;;2.88;0.77;;;25.00;63.70;;;;;;5097914;28;20067;-77
2021/05/31 11:21:09;;;;;;;1.35;0.88;;;24.70;61.70;;;;;;5109041;28;20126;-77
2021/05/31 11:23:41;;;;;;;1.15;1.05;;;24.70;63.40;;;;;;5099393;28;20056;-77
2021/05/31 11:26:12;;;;;;;1.42;0.80;;;24.90;63.30;;;;;;5097998;28;20040;-77
2021/05/31 11:28:41;;;;;;;1.35;0.90;;;25.00;64.00;;;;;;5083689;28;20044;-77
2021/05/31 11:31:09;;;;;;;1.80;0.90;;;25.10;63.80;;;;;;5095509;28;20059;-77
2021/05/31 11:33:38;;;;;;;1.48;0.80;;;25.00;62.80;;;;;;5098927;28;20044;-77
2021/05/31 11:36:06;;;;;;;0.90;0.70;;;24.90;62.70;;;;;;5082357;28;21043;-77
2021/05/31 11:38:39;;;;;;;3.45;0.80;;;24.90;63.90;;;;;;5098306;28;20132;-77
2021/05/31 11:41:10;;;;;;;2.35;1.00;;;25.10;63.70;;;;;;5099311;28;20146;-77
2021/05/31 11:43:49;;;;;;;2.00;0.80;;;25.00;62.70;;;;;;5080377;28;20071;-77
2021/05/31 11:46:17;;;;;;;2.22;0.90;;;24.90;62.30;;;;;;5094834;28;20050;-77
2021/05/31 11:48:46;;;;;;;2.40;1.08;;;25.00;62.40;;;;;;5092853;28;20483;-77
2021/05/31 11:51:14;;;;;;;1.23;0.82;;;25.20;63.70;;;;;;5097491;28;20443;-77
2021/05/31 11:53:45;;;;;;;2.33;0.70;;;25.30;61.50;;;;;;5095357;28;20127;-77
2021/05/31 11:56:14;;;;;;;3.28;0.80;;;25.50;59.70;;;;;;5115430;27;20959;-77
2021/05/31 11:58:43;;;;;;;2.75;0.70;;;25.70;60.50;;;;;;5101034;27;20565;-77
2021/05/31 12:01:12;;;;;;;1.63;0.73;;;26.00;61.60;;;;;;5100916;27;20036;-77
2021/05/31 12:03:44;;;;;;;1.65;1.10;;;26.30;60.60;;;;;;5100668;28;20043;-77
2021/05/31 12:06:13;;;;;;;1.25;0.80;;;26.40;58.80;;;;;;5103858;27;20051;-77
2021/05/31 12:08:42;;;;;;;0.70;0.70;;;26.20;60.20;;;;;;5098546;27;20560;-77
2021/05/31 12:11:20;;;;;;;2.53;1.27;;;26.20;59.20;;;;;;5099860;27;20047;-77
2021/05/31 12:13:49;;;;;;;1.40;0.70;;;26.20;59.90;;;;;;5099141;27;20055;-77
2021/05/31 12:16:17;;;;;;;2.42;0.88;;;26.40;59.80;;;;;;5099384;27;20416;-77
2021/05/31 12:18:48;;;;;;;1.70;0.90;;;26.40;60.10;;;;;;5099115;28;20531;-77
2021/05/31 12:21:17;;;;;;;1.23;0.80;;;26.40;60.40;;;;;;5084042;28;20028;-77
2021/05/31 12:23:48;;;;;;;1.83;1.00;;;26.70;61.00;;;;;;5099771;27;20135;-77
2021/05/31 12:26:23;;;;;;;2.70;0.90;;;26.50;59.20;;;;;;5099930;28;20386;-77
2021/05/31 12:28:52;;;;;;;1.67;0.90;;;26.60;61.60;;;;;;5100355;27;20040;-78
2021/05/31 12:31:20;;;;;;;1.33;0.80;;;26.20;59.10;;;;;;5107739;27;20135;-77
2021/05/31 12:33:58;;;;;;;3.25;1.05;;;26.10;61.00;;;;;;5095317;27;20036;-77
2021/05/31 12:36:28;;;;;;;1.48;0.68;;;25.80;60.40;;;;;;5098420;28;20051;-77
2021/05/31 12:38:56;;;;;;;1.30;0.70;;;25.60;61.20;;;;;;5097562;28;20481;-77
2021/05/31 12:41:26;;;;;;;1.73;0.80;;;25.50;62.20;;;;;;5086102;28;20153;-77
2021/05/31 12:44:04;;;;;;;2.28;1.17;;;25.80;62.30;;;;;;5101385;27;20052;-77
2021/05/31 12:46:38;;;;;;;1.88;0.80;;;26.10;61.90;;;;;;5103341;27;20050;-77
2021/05/31 12:49:07;;;;;;;2.20;0.88;;;26.50;62.00;;;;;;5100275;28;20064;-78
2021/05/31 12:51:36;;;;;;;2.83;1.00;;;26.60;61.50;;;;;;5101166;27;20039;-78
2021/05/31 12:54:05;;;;;;;1.23;0.80;;;26.60;61.20;;;;;;5101796;27;20038;-77
2021/05/31 12:56:38;;;;;;;3.85;1.00;;;26.90;61.10;;;;;;5098595;27;20250;-78
2021/05/31 12:59:09;;;;;;;3.13;1.23;;;27.20;61.00;;;;;;5107766;27;20059;-77
2021/05/31 13:01:41;;;;;;;3.13;1.08;;;27.30;61.20;;;;;;5097727;28;20101;-77
2021/05/31 13:04:09;;;;;;;2.35;1.00;;;27.50;61.50;;;;;;5098892;27;20035;-77
2021/05/31 13:06:42;;;;;;;2.38;1.20;;;27.70;60.30;;;;;;5097309;27;20048;-77
2021/05/31 13:09:22;;;;;;;2.25;1.00;;;28.00;60.20;;;;;;5099614;28;20067;-77
2021/05/31 13:11:53;;;;;;;3.25;1.40;;;28.10;59.60;;;;;;5098753;27;20048;-78
2021/05/31 13:14:24;;;;;;;2.15;1.10;;;28.00;59.00;;;;;;5106534;27;20031;-77
2021/05/31 13:16:58;;;;;;;2.70;1.00;;;27.80;59.50;;;;;;5097779;27;20044;-77